• Join FlightAware (Why Join?)
  • Login
  • US Flag 
05:26PM EDT


 

Airport Tracker/Info


-or-


 

Live Flight TrackerFlight Track Log ✈ EGF4152 ✈ 13-May-2013 ✈ KAZO - KORD

Flight Track Log - Related Links

Times and Time Zones

All times are in EDT time to prevent confusion due to time zone crossing. See the EGF4152 flight status page for this flight to view local times or setup timezone preferences in your user account.

Time Position Orientation Groundspeed Altitude Reporting Facility
EDT Latitude Longitude Course Direction KTS MPH feet Rate Location/Type
06:22AM 42.2664 -85.5486 294° West 177 204 2,500  Level Chicago Center
06:23AM 42.3069 -85.5544 354° North 181 208 4,700 1,980 Climbing Chicago Center
06:24AM 42.3343 -85.8018 304° West  Level FlightAware Approximate
06:24AM 42.3289 -85.6289 292° West 209 241 6,500  Level Chicago Center
06:25AM 42.3670 -85.8840 304° West  Level FlightAware Approximate
06:25AM 42.3531 -85.7103 292° West 227 261 9,200  Level Chicago Center
06:26AM 42.4032 -85.9663 298° West  Level FlightAware Approximate
06:26AM 42.3858 -85.8214 292° West 259 298 10,000  Level Chicago Center
06:27AM 42.4342 -86.0524 294° West  Level FlightAware Approximate
06:27AM 42.4106 -85.9364 286° West 307 353 11,800  Level Chicago Center
06:28AM 42.4131 -86.0536 272° West 311 358 14,200 1,680 Climbing Chicago Center
06:29AM 42.4192 -86.1714 274° West 312 359 15,200 780 Climbing Chicago Center
06:30AM 42.4181 -86.2989 269° West 333 383 15,800 360 Climbing Chicago Center
06:31AM 42.4167 -86.4358 269° West 359 413 16,000 -360 Climbing Chicago Center
06:32AM 42.4133 -86.5708 268° West 361 415 15,100 -1,020 Descending Chicago Center
06:33AM 42.4125 -86.7025 270° West 353 406 14,000 -1,140 Descending Chicago Center
06:34AM 42.4089 -86.8308 268° West 343 395 12,900 -1,200 Descending Chicago Center
06:35AM 42.4064 -86.9581 269° West 339 390 11,700 -1,200 Descending Chicago Center
06:36AM 42.4042 -87.0817 269° West 330 380 10,600 -900 Descending Chicago Center
06:37AM 42.3997 -87.2056 267° West 330 380 10,000 -300 Descending Chicago Center
06:38AM 42.3739 -87.3250 254° West 345 397 10,000  Level Chicago Center
06:39AM 42.3472 -87.4469 254° West 331 381 10,000  Level Chicago Center
06:40AM 42.3356 -87.5694 263° West 332 382 10,000  Level Chicago Center
06:41AM 42.3228 -87.6900 262° West 329 379 10,000 -240 Level Chicago Center
06:42AM 42.3111 -87.7944 261° West 287 330 9,600 -840 Descending Chicago Center
06:43AM 42.3006 -87.8878 261° West 257 296 8,400 -1,200 Descending Chicago Center
06:44AM 42.2917 -87.9853 263° West 261 300 7,200 -780 Descending Chicago Center
06:45AM 42.2667 -88.0717 249° West 265 305 6,900 -600 Descending Chicago Center
06:46AM 42.2131 -88.1328 220° Southwest 258 297 6,100 -840 Descending Chicago Center